sensor_id;sensor_type;location;lat;lon;timestamp;temperature;humidity
67196;DHT22;54122;53.538;49.366;2022-12-29T00:01:37;-5.30;80.50
67196;DHT22;54122;53.538;49.366;2022-12-29T00:04:04;-5.30;80.40
67196;DHT22;54122;53.538;49.366;2022-12-29T00:06:31;-5.30;80.40
67196;DHT22;54122;53.538;49.366;2022-12-29T00:09:00;-5.30;80.50
67196;DHT22;54122;53.538;49.366;2022-12-29T00:11:31;-5.30;80.60
67196;DHT22;54122;53.538;49.366;2022-12-29T00:14:01;-5.30;80.60
67196;DHT22;54122;53.538;49.366;2022-12-29T00:16:46;-5.30;80.70
67196;DHT22;54122;53.538;49.366;2022-12-29T00:19:12;-5.30;80.60
67196;DHT22;54122;53.538;49.366;2022-12-29T00:22:01;-5.30;80.70
67196;DHT22;54122;53.538;49.366;2022-12-29T00:24:45;-5.30;80.80
67196;DHT22;54122;53.538;49.366;2022-12-29T00:27:20;-5.30;80.70
67196;DHT22;54122;53.538;49.366;2022-12-29T00:30:11;-5.30;80.80
67196;DHT22;54122;53.538;49.366;2022-12-29T00:33:11;-5.30;81.00
67196;DHT22;54122;53.538;49.366;2022-12-29T00:36:25;-5.20;81.10
67196;DHT22;54122;53.538;49.366;2022-12-29T00:39:04;-5.30;81.00
67196;DHT22;54122;53.538;49.366;2022-12-29T00:41:54;-5.30;81.20
67196;DHT22;54122;53.538;49.366;2022-12-29T00:44:39;-5.30;81.10
67196;DHT22;54122;53.538;49.366;2022-12-29T00:47:06;-5.30;81.10
67196;DHT22;54122;53.538;49.366;2022-12-29T00:49:37;-5.30;81.20
67196;DHT22;54122;53.538;49.366;2022-12-29T00:52:09;-5.30;81.30
67196;DHT22;54122;53.538;49.366;2022-12-29T00:54:40;-5.30;81.30
67196;DHT22;54122;53.538;49.366;2022-12-29T00:57:09;-5.20;81.30
67196;DHT22;54122;53.538;49.366;2022-12-29T00:59:40;-5.30;81.20
67196;DHT22;54122;53.538;49.366;2022-12-29T01:02:10;-5.30;81.30
67196;DHT22;54122;53.538;49.366;2022-12-29T01:04:37;-5.30;81.40
67196;DHT22;54122;53.538;49.366;2022-12-29T01:07:14;-5.30;81.40
67196;DHT22;54122;53.538;49.366;2022-12-29T01:09:40;-5.30;81.50
67196;DHT22;54122;53.538;49.366;2022-12-29T01:12:24;-5.30;81.60
67196;DHT22;54122;53.538;49.366;2022-12-29T01:15:13;-5.30;81.60
67196;DHT22;54122;53.538;49.366;2022-12-29T01:17:39;-5.30;81.70
67196;DHT22;54122;53.538;49.366;2022-12-29T01:20:10;-5.30;81.80
67196;DHT22;54122;53.538;49.366;2022-12-29T01:22:39;-5.30;82.00
67196;DHT22;54122;53.538;49.366;2022-12-29T01:25:09;-5.30;81.80
67196;DHT22;54122;53.538;49.366;2022-12-29T01:27:39;-5.30;81.80
67196;DHT22;54122;53.538;49.366;2022-12-29T01:30:16;-5.30;82.00
67196;DHT22;54122;53.538;49.366;2022-12-29T01:32:42;-5.30;82.00
67196;DHT22;54122;53.538;49.366;2022-12-29T01:35:11;-5.30;83.10
67196;DHT22;54122;53.538;49.366;2022-12-29T01:37:41;-5.30;82.20
67196;DHT22;54122;53.538;49.366;2022-12-29T01:40:10;-5.30;82.30
67196;DHT22;54122;53.538;49.366;2022-12-29T01:42:40;-5.30;82.40
67196;DHT22;54122;53.538;49.366;2022-12-29T01:45:13;-5.30;82.40
67196;DHT22;54122;53.538;49.366;2022-12-29T01:47:53;-5.30;82.50
67196;DHT22;54122;53.538;49.366;2022-12-29T01:50:28;-5.30;82.60
67196;DHT22;54122;53.538;49.366;2022-12-29T01:53:26;-5.20;82.60
67196;DHT22;54122;53.538;49.366;2022-12-29T01:56:00;-5.20;82.60
67196;DHT22;54122;53.538;49.366;2022-12-29T01:58:32;-5.20;82.60
67196;DHT22;54122;53.538;49.366;2022-12-29T02:00:59;-5.20;82.60
67196;DHT22;54122;53.538;49.366;2022-12-29T02:03:26;-5.20;82.60
67196;DHT22;54122;53.538;49.366;2022-12-29T02:06:15;-5.20;82.60
67196;DHT22;54122;53.538;49.366;2022-12-29T02:08:46;-5.10;83.10
67196;DHT22;54122;53.538;49.366;2022-12-29T02:11:13;-5.20;82.70
67196;DHT22;54122;53.538;49.366;2022-12-29T02:13:43;-5.10;82.80
67196;DHT22;54122;53.538;49.366;2022-12-29T02:16:39;-5.10;82.90
67196;DHT22;54122;53.538;49.366;2022-12-29T02:28:06;-5.00;82.90
67196;DHT22;54122;53.538;49.366;2022-12-29T02:30:52;-5.00;82.80
67196;DHT22;54122;53.538;49.366;2022-12-29T02:39:01;-5.00;82.90
67196;DHT22;54122;53.538;49.366;2022-12-29T02:44:04;-5.00;83.00
67196;DHT22;54122;53.538;49.366;2022-12-29T02:46:35;-5.00;83.10
67196;DHT22;54122;53.538;49.366;2022-12-29T02:49:11;-5.00;83.20
67196;DHT22;54122;53.538;49.366;2022-12-29T02:52:16;-5.00;83.20
67196;DHT22;54122;53.538;49.366;2022-12-29T02:54:47;-5.00;83.20
67196;DHT22;54122;53.538;49.366;2022-12-29T02:57:26;-5.00;83.40
67196;DHT22;54122;53.538;49.366;2022-12-29T02:59:58;-5.00;83.30
67196;DHT22;54122;53.538;49.366;2022-12-29T03:03:00;-5.00;83.30
67196;DHT22;54122;53.538;49.366;2022-12-29T03:08:34;-5.00;83.30
67196;DHT22;54122;53.538;49.366;2022-12-29T03:11:09;-5.00;83.40
67196;DHT22;54122;53.538;49.366;2022-12-29T03:16:53;-5.00;83.50
67196;DHT22;54122;53.538;49.366;2022-12-29T03:19:38;-5.00;83.50
67196;DHT22;54122;53.538;49.366;2022-12-29T03:22:09;-5.00;83.50
67196;DHT22;54122;53.538;49.366;2022-12-29T03:24:57;-5.00;83.60
67196;DHT22;54122;53.538;49.366;2022-12-29T03:27:34;-5.10;83.60
67196;DHT22;54122;53.538;49.366;2022-12-29T03:30:04;-5.00;83.60
67196;DHT22;54122;53.538;49.366;2022-12-29T03:32:39;-5.00;83.50
67196;DHT22;54122;53.538;49.366;2022-12-29T03:35:09;-5.10;83.50
67196;DHT22;54122;53.538;49.366;2022-12-29T03:37:40;-5.10;83.60
67196;DHT22;54122;53.538;49.366;2022-12-29T03:40:07;-5.00;83.60
67196;DHT22;54122;53.538;49.366;2022-12-29T03:42:35;-5.10;83.50
67196;DHT22;54122;53.538;49.366;2022-12-29T03:45:04;-5.00;83.70
67196;DHT22;54122;53.538;49.366;2022-12-29T03:47:33;-5.00;83.60
67196;DHT22;54122;53.538;49.366;2022-12-29T03:49:59;-5.00;83.60
67196;DHT22;54122;53.538;49.366;2022-12-29T03:52:28;-5.00;83.30
67196;DHT22;54122;53.538;49.366;2022-12-29T03:54:57;-5.00;83.20
67196;DHT22;54122;53.538;49.366;2022-12-29T03:57:24;-5.00;83.30
67196;DHT22;54122;53.538;49.366;2022-12-29T03:59:50;-5.10;83.20
67196;DHT22;54122;53.538;49.366;2022-12-29T04:02:16;-5.10;83.30
67196;DHT22;54122;53.538;49.366;2022-12-29T04:04:42;-5.10;83.20
67196;DHT22;54122;53.538;49.366;2022-12-29T04:07:08;-5.10;83.30
67196;DHT22;54122;53.538;49.366;2022-12-29T04:09:34;-5.10;83.40
67196;DHT22;54122;53.538;49.366;2022-12-29T04:12:00;-5.10;83.30
67196;DHT22;54122;53.538;49.366;2022-12-29T04:14:27;-5.10;83.50
67196;DHT22;54122;53.538;49.366;2022-12-29T04:16:53;-5.10;83.60
67196;DHT22;54122;53.538;49.366;2022-12-29T04:19:19;-5.10;83.50
67196;DHT22;54122;53.538;49.366;2022-12-29T04:21:45;-5.00;83.70
67196;DHT22;54122;53.538;49.366;2022-12-29T04:24:12;-5.00;83.50
67196;DHT22;54122;53.538;49.366;2022-12-29T04:26:39;-5.00;83.40
67196;DHT22;54122;53.538;49.366;2022-12-29T04:29:09;-5.00;83.30
67196;DHT22;54122;53.538;49.366;2022-12-29T04:31:41;-5.00;83.20
67196;DHT22;54122;53.538;49.366;2022-12-29T04:34:11;-5.00;83.20
67196;DHT22;54122;53.538;49.366;2022-12-29T04:36:47;-5.00;83.20
67196;DHT22;54122;53.538;49.366;2022-12-29T04:39:15;-5.00;83.30
67196;DHT22;54122;53.538;49.366;2022-12-29T04:41:45;-4.90;84.20
67196;DHT22;54122;53.538;49.366;2022-12-29T04:44:16;-5.00;83.20
67196;DHT22;54122;53.538;49.366;2022-12-29T04:46:42;-4.90;83.30
67196;DHT22;54122;53.538;49.366;2022-12-29T04:49:09;-4.90;83.20
67196;DHT22;54122;53.538;49.366;2022-12-29T04:51:36;-4.90;83.30
67196;DHT22;54122;53.538;49.366;2022-12-29T04:54:02;-4.90;83.30
67196;DHT22;54122;53.538;49.366;2022-12-29T04:56:28;-4.90;83.20
67196;DHT22;54122;53.538;49.366;2022-12-29T04:58:54;-4.90;83.20
67196;DHT22;54122;53.538;49.366;2022-12-29T05:01:21;-5.00;83.20
67196;DHT22;54122;53.538;49.366;2022-12-29T05:03:50;-5.00;83.30
67196;DHT22;54122;53.538;49.366;2022-12-29T05:06:18;-5.00;83.50
67196;DHT22;54122;53.538;49.366;2022-12-29T05:08:44;-5.00;83.50
67196;DHT22;54122;53.538;49.366;2022-12-29T05:11:11;-5.00;83.60
67196;DHT22;54122;53.538;49.366;2022-12-29T05:13:38;-5.00;83.70
67196;DHT22;54122;53.538;49.366;2022-12-29T05:16:04;-4.90;83.70
67196;DHT22;54122;53.538;49.366;2022-12-29T05:18:30;-4.90;83.70
67196;DHT22;54122;53.538;49.366;2022-12-29T05:20:59;-4.90;83.80
67196;DHT22;54122;53.538;49.366;2022-12-29T05:23:26;-4.90;83.70
67196;DHT22;54122;53.538;49.366;2022-12-29T05:25:54;-4.80;83.50
67196;DHT22;54122;53.538;49.366;2022-12-29T05:28:24;-4.90;83.40
67196;DHT22;54122;53.538;49.366;2022-12-29T05:30:55;-4.80;83.40
67196;DHT22;54122;53.538;49.366;2022-12-29T05:33:31;-4.80;83.40
67196;DHT22;54122;53.538;49.366;2022-12-29T05:36:04;-4.80;83.40
67196;DHT22;54122;53.538;49.366;2022-12-29T05:38:30;-4.80;83.40
67196;DHT22;54122;53.538;49.366;2022-12-29T05:40:57;-4.70;83.40
67196;DHT22;54122;53.538;49.366;2022-12-29T05:43:33;-4.70;83.20
67196;DHT22;54122;53.538;49.366;2022-12-29T05:46:03;-4.60;83.30
67196;DHT22;54122;53.538;49.366;2022-12-29T05:48:29;-4.60;83.30
67196;DHT22;54122;53.538;49.366;2022-12-29T05:50:59;-4.60;83.20
67196;DHT22;54122;53.538;49.366;2022-12-29T05:53:25;-4.50;83.20
67196;DHT22;54122;53.538;49.366;2022-12-29T05:55:51;-4.50;83.00
67196;DHT22;54122;53.538;49.366;2022-12-29T05:58:18;-4.50;82.90
67196;DHT22;54122;53.538;49.366;2022-12-29T06:00:44;-4.50;82.80
67196;DHT22;54122;53.538;49.366;2022-12-29T06:03:11;-4.40;82.90
67196;DHT22;54122;53.538;49.366;2022-12-29T06:05:37;-4.30;82.90
67196;DHT22;54122;53.538;49.366;2022-12-29T06:08:13;-4.30;82.70
67196;DHT22;54122;53.538;49.366;2022-12-29T06:10:41;-4.30;82.50
67196;DHT22;54122;53.538;49.366;2022-12-29T06:13:17;-4.30;82.20
67196;DHT22;54122;53.538;49.366;2022-12-29T06:15:44;-4.30;82.20
67196;DHT22;54122;53.538;49.366;2022-12-29T06:18:14;-4.30;82.10
67196;DHT22;54122;53.538;49.366;2022-12-29T06:20:41;-4.20;82.20
67196;DHT22;54122;53.538;49.366;2022-12-29T06:23:07;-4.20;82.10
67196;DHT22;54122;53.538;49.366;2022-12-29T06:25:34;-4.20;81.90
67196;DHT22;54122;53.538;49.366;2022-12-29T06:28:02;-4.20;81.60
67196;DHT22;54122;53.538;49.366;2022-12-29T06:30:28;-4.20;81.40
67196;DHT22;54122;53.538;49.366;2022-12-29T06:32:55;-4.20;81.30
67196;DHT22;54122;53.538;49.366;2022-12-29T06:35:21;-4.20;81.30
67196;DHT22;54122;53.538;49.366;2022-12-29T06:37:48;-4.20;81.40
67196;DHT22;54122;53.538;49.366;2022-12-29T06:40:18;-4.20;81.30
67196;DHT22;54122;53.538;49.366;2022-12-29T06:42:48;-4.20;81.20
67196;DHT22;54122;53.538;49.366;2022-12-29T06:45:24;-4.10;81.10
67196;DHT22;54122;53.538;49.366;2022-12-29T06:47:55;-4.10;81.20
67196;DHT22;54122;53.538;49.366;2022-12-29T06:50:21;-4.10;80.90
67196;DHT22;54122;53.538;49.366;2022-12-29T06:52:49;-4.00;81.00
67196;DHT22;54122;53.538;49.366;2022-12-29T06:55:16;-3.90;80.90
67196;DHT22;54122;53.538;49.366;2022-12-29T06:57:42;-3.90;80.90
67196;DHT22;54122;53.538;49.366;2022-12-29T07:00:08;-3.80;81.00
67196;DHT22;54122;53.538;49.366;2022-12-29T07:02:35;-3.60;80.70
67196;DHT22;54122;53.538;49.366;2022-12-29T07:05:01;-3.50;80.10
67196;DHT22;54122;53.538;49.366;2022-12-29T07:07:37;-3.40;79.80
67196;DHT22;54122;53.538;49.366;2022-12-29T07:10:04;-3.30;79.40
67196;DHT22;54122;53.538;49.366;2022-12-29T07:12:41;-3.20;78.80
67196;DHT22;54122;53.538;49.366;2022-12-29T07:15:07;-3.30;78.10
67196;DHT22;54122;53.538;49.366;2022-12-29T07:17:34;-3.40;78.00
67196;DHT22;54122;53.538;49.366;2022-12-29T07:20:02;-3.50;77.90
67196;DHT22;54122;53.538;49.366;2022-12-29T07:22:29;-3.60;78.00
67196;DHT22;54122;53.538;49.366;2022-12-29T07:24:55;-3.60;78.30
67196;DHT22;54122;53.538;49.366;2022-12-29T07:27:21;-3.60;78.70
67196;DHT22;54122;53.538;49.366;2022-12-29T07:29:47;-3.50;78.90
67196;DHT22;54122;53.538;49.366;2022-12-29T07:32:16;-3.50;78.80
67196;DHT22;54122;53.538;49.366;2022-12-29T07:34:53;-3.50;78.50
67196;DHT22;54122;53.538;49.366;2022-12-29T07:37:20;-3.50;78.10
67196;DHT22;54122;53.538;49.366;2022-12-29T07:39:56;-3.50;78.00
67196;DHT22;54122;53.538;49.366;2022-12-29T07:42:23;-3.60;78.00
67196;DHT22;54122;53.538;49.366;2022-12-29T07:44:49;-3.50;78.20
67196;DHT22;54122;53.538;49.366;2022-12-29T07:47:16;-3.50;78.20
67196;DHT22;54122;53.538;49.366;2022-12-29T07:49:42;-3.50;78.20
67196;DHT22;54122;53.538;49.366;2022-12-29T07:52:08;-3.40;78.10
67196;DHT22;54122;53.538;49.366;2022-12-29T07:54:34;-3.40;78.10
67196;DHT22;54122;53.538;49.366;2022-12-29T07:57:00;-3.50;77.90
67196;DHT22;54122;53.538;49.366;2022-12-29T07:59:27;-3.50;77.90
67196;DHT22;54122;53.538;49.366;2022-12-29T08:01:53;-3.60;77.80
67196;DHT22;54122;53.538;49.366;2022-12-29T08:04:19;-3.60;77.90
67196;DHT22;54122;53.538;49.366;2022-12-29T08:06:45;-3.60;78.00
67196;DHT22;54122;53.538;49.366;2022-12-29T08:09:11;-3.60;78.00
67196;DHT22;54122;53.538;49.366;2022-12-29T08:11:37;-3.70;78.00
67196;DHT22;54122;53.538;49.366;2022-12-29T08:14:04;-3.70;78.30
67196;DHT22;54122;53.538;49.366;2022-12-29T08:16:32;-3.70;78.40
67196;DHT22;54122;53.538;49.366;2022-12-29T08:18:58;-3.70;78.50
67196;DHT22;54122;53.538;49.366;2022-12-29T08:21:28;-3.70;78.70
67196;DHT22;54122;53.538;49.366;2022-12-29T08:23:54;-3.60;78.70
67196;DHT22;54122;53.538;49.366;2022-12-29T08:26:20;-3.50;78.70
67196;DHT22;54122;53.538;49.366;2022-12-29T08:28:47;-3.40;78.80
67196;DHT22;54122;53.538;49.366;2022-12-29T08:31:13;-3.30;78.60
67196;DHT22;54122;53.538;49.366;2022-12-29T08:33:40;-3.30;78.50
67196;DHT22;54122;53.538;49.366;2022-12-29T08:36:16;-3.20;78.60
67196;DHT22;54122;53.538;49.366;2022-12-29T08:38:43;-3.20;78.20
67196;DHT22;54122;53.538;49.366;2022-12-29T08:41:19;-3.20;78.20
67196;DHT22;54122;53.538;49.366;2022-12-29T08:43:47;-3.10;78.20
67196;DHT22;54122;53.538;49.366;2022-12-29T08:46:14;-3.10;78.00
67196;DHT22;54122;53.538;49.366;2022-12-29T08:48:41;-3.00;78.30
67196;DHT22;54122;53.538;49.366;2022-12-29T08:51:07;-3.00;78.00
67196;DHT22;54122;53.538;49.366;2022-12-29T08:53:34;-3.00;77.90
67196;DHT22;54122;53.538;49.366;2022-12-29T08:56:01;-3.00;77.80
67196;DHT22;54122;53.538;49.366;2022-12-29T08:58:32;-2.90;77.80
67196;DHT22;54122;53.538;49.366;2022-12-29T09:00:58;-2.90;77.70
67196;DHT22;54122;53.538;49.366;2022-12-29T09:03:27;-2.90;77.60
67196;DHT22;54122;53.538;49.366;2022-12-29T09:05:54;-2.90;77.60
67196;DHT22;54122;53.538;49.366;2022-12-29T09:08:21;-2.80;77.80
67196;DHT22;54122;53.538;49.366;2022-12-29T09:10:48;-2.70;77.70
67196;DHT22;54122;53.538;49.366;2022-12-29T09:13:15;-2.60;78.50
67196;DHT22;54122;53.538;49.366;2022-12-29T09:15:43;-2.60;77.40
67196;DHT22;54122;53.538;49.366;2022-12-29T09:18:19;-2.50;77.30
67196;DHT22;54122;53.538;49.366;2022-12-29T09:20:48;-2.50;76.90
67196;DHT22;54122;53.538;49.366;2022-12-29T09:23:25;-2.50;76.60
67196;DHT22;54122;53.538;49.366;2022-12-29T09:25:52;-2.50;76.70
67196;DHT22;54122;53.538;49.366;2022-12-29T09:28:19;-2.50;76.70
67196;DHT22;54122;53.538;49.366;2022-12-29T09:30:46;-2.50;76.80
67196;DHT22;54122;53.538;49.366;2022-12-29T09:33:12;-2.40;76.70
67196;DHT22;54122;53.538;49.366;2022-12-29T09:35:50;-2.40;76.70
67196;DHT22;54122;53.538;49.366;2022-12-29T09:38:17;-2.30;76.70
67196;DHT22;54122;53.538;49.366;2022-12-29T09:40:45;-2.20;76.80
67196;DHT22;54122;53.538;49.366;2022-12-29T09:48:43;-2.00;75.80
67196;DHT22;54122;53.538;49.366;2022-12-29T09:51:15;-1.90;75.60
67196;DHT22;54122;53.538;49.366;2022-12-29T09:53:58;-1.90;75.40
67196;DHT22;54122;53.538;49.366;2022-12-29T09:56:25;-1.80;75.10
67196;DHT22;54122;53.538;49.366;2022-12-29T09:59:14;-1.90;75.00
67196;DHT22;54122;53.538;49.366;2022-12-29T10:04:18;-1.80;75.40
67196;DHT22;54122;53.538;49.366;2022-12-29T10:06:56;-1.80;75.30
67196;DHT22;54122;53.538;49.366;2022-12-29T10:10:03;-1.80;75.10
67196;DHT22;54122;53.538;49.366;2022-12-29T10:15:18;-1.90;74.80
67196;DHT22;54122;53.538;49.366;2022-12-29T10:18:03;-1.90;74.90
67196;DHT22;54122;53.538;49.366;2022-12-29T10:25:50;-2.00;75.30
67196;DHT22;54122;53.538;49.366;2022-12-29T10:28:22;-2.00;75.40
67196;DHT22;54122;53.538;49.366;2022-12-29T10:30:50;-2.00;75.30
67196;DHT22;54122;53.538;49.366;2022-12-29T10:33:24;-2.10;74.80
67196;DHT22;54122;53.538;49.366;2022-12-29T10:35:52;-2.20;74.70
67196;DHT22;54122;53.538;49.366;2022-12-29T10:38:40;-2.20;75.00
67196;DHT22;54122;53.538;49.366;2022-12-29T10:41:23;-2.30;74.90
67196;DHT22;54122;53.538;49.366;2022-12-29T10:43:54;-2.30;75.20
67196;DHT22;54122;53.538;49.366;2022-12-29T10:46:34;-2.30;75.40
67196;DHT22;54122;53.538;49.366;2022-12-29T10:49:02;-2.30;75.30
67196;DHT22;54122;53.538;49.366;2022-12-29T10:51:41;-2.20;75.10
67196;DHT22;54122;53.538;49.366;2022-12-29T10:57:19;-2.30;75.00
67196;DHT22;54122;53.538;49.366;2022-12-29T10:59:46;-2.30;74.90
67196;DHT22;54122;53.538;49.366;2022-12-29T11:07:40;-2.80;74.70
67196;DHT22;54122;53.538;49.366;2022-12-29T11:10:21;-2.90;74.80
67196;DHT22;54122;53.538;49.366;2022-12-29T11:15:28;-3.00;75.40
67196;DHT22;54122;53.538;49.366;2022-12-29T11:18:03;-3.10;75.70
67196;DHT22;54122;53.538;49.366;2022-12-29T11:20:39;-3.10;75.80
67196;DHT22;54122;53.538;49.366;2022-12-29T11:26:17;-3.00;75.90
67196;DHT22;54122;53.538;49.366;2022-12-29T11:28:47;-3.00;75.80
67196;DHT22;54122;53.538;49.366;2022-12-29T11:31:18;-3.00;75.90
67196;DHT22;54122;53.538;49.366;2022-12-29T11:33:47;-3.00;75.70
67196;DHT22;54122;53.538;49.366;2022-12-29T11:36:17;-3.00;75.70
67196;DHT22;54122;53.538;49.366;2022-12-29T11:38:53;-3.10;75.70
67196;DHT22;54122;53.538;49.366;2022-12-29T11:41:31;-3.10;75.80
67196;DHT22;54122;53.538;49.366;2022-12-29T11:44:00;-3.10;75.80
67196;DHT22;54122;53.538;49.366;2022-12-29T11:46:33;-3.10;75.90
67196;DHT22;54122;53.538;49.366;2022-12-29T11:48:59;-3.20;76.10
67196;DHT22;54122;53.538;49.366;2022-12-29T11:53:59;-3.20;76.20
67196;DHT22;54122;53.538;49.366;2022-12-29T11:56:39;-3.20;76.40
67196;DHT22;54122;53.538;49.366;2022-12-29T12:05:49;-3.30;76.60
67196;DHT22;54122;53.538;49.366;2022-12-29T12:08:19;-3.30;77.70
67196;DHT22;54122;53.538;49.366;2022-12-29T12:13:35;-3.40;76.70
67196;DHT22;54122;53.538;49.366;2022-12-29T12:16:18;-3.40;77.00
67196;DHT22;54122;53.538;49.366;2022-12-29T12:18:50;-3.50;77.10
67196;DHT22;54122;53.538;49.366;2022-12-29T12:24:26;-3.50;77.30
67196;DHT22;54122;53.538;49.366;2022-12-29T12:27:13;-3.60;77.40
67196;DHT22;54122;53.538;49.366;2022-12-29T12:30:02;-3.60;77.50
67196;DHT22;54122;53.538;49.366;2022-12-29T12:32:58;-3.60;77.60
67196;DHT22;54122;53.538;49.366;2022-12-29T12:35:43;-3.70;77.80
67196;DHT22;54122;53.538;49.366;2022-12-29T12:44:24;-3.80;77.80
67196;DHT22;54122;53.538;49.366;2022-12-29T12:52:27;-3.90;78.40
67196;DHT22;54122;53.538;49.366;2022-12-29T12:55:18;-3.90;78.50
67196;DHT22;54122;53.538;49.366;2022-12-29T13:04:24;-3.90;78.80
67196;DHT22;54122;53.538;49.366;2022-12-29T13:07:12;-3.80;79.00
67196;DHT22;54122;53.538;49.366;2022-12-29T13:12:18;-3.90;78.90
67196;DHT22;54122;53.538;49.366;2022-12-29T13:31:25;-4.00;79.50
67196;DHT22;54122;53.538;49.366;2022-12-29T13:34:32;-3.90;79.50
67196;DHT22;54122;53.538;49.366;2022-12-29T13:37:09;-4.00;79.50
67196;DHT22;54122;53.538;49.366;2022-12-29T13:39:52;-4.00;79.60
67196;DHT22;54122;53.538;49.366;2022-12-29T13:42:21;-4.00;79.70
67196;DHT22;54122;53.538;49.366;2022-12-29T13:44:57;-4.00;79.90
67196;DHT22;54122;53.538;49.366;2022-12-29T13:47:36;-3.90;79.90
67196;DHT22;54122;53.538;49.366;2022-12-29T13:50:14;-3.90;79.90
67196;DHT22;54122;53.538;49.366;2022-12-29T13:58:52;-3.90;79.90
67196;DHT22;54122;53.538;49.366;2022-12-29T14:01:29;-3.90;79.90
67196;DHT22;54122;53.538;49.366;2022-12-29T14:03:58;-3.90;80.00
67196;DHT22;54122;53.538;49.366;2022-12-29T14:06:35;-3.90;79.90
67196;DHT22;54122;53.538;49.366;2022-12-29T14:09:41;-3.90;79.90
67196;DHT22;54122;53.538;49.366;2022-12-29T14:12:34;-3.90;79.90
67196;DHT22;54122;53.538;49.366;2022-12-29T14:17:38;-3.90;79.90
67196;DHT22;54122;53.538;49.366;2022-12-29T14:20:18;-3.90;79.90
67196;DHT22;54122;53.538;49.366;2022-12-29T14:28:49;-3.80;79.90
67196;DHT22;54122;53.538;49.366;2022-12-29T14:36:38;-3.90;79.90
67196;DHT22;54122;53.538;49.366;2022-12-29T14:39:40;-3.90;80.00
67196;DHT22;54122;53.538;49.366;2022-12-29T14:44:50;-3.90;80.10
67196;DHT22;54122;53.538;49.366;2022-12-29T14:47:53;-3.80;80.10
67196;DHT22;54122;53.538;49.366;2022-12-29T14:52:54;-3.80;80.30
67196;DHT22;54122;53.538;49.366;2022-12-29T14:58:30;-3.80;80.30
67196;DHT22;54122;53.538;49.366;2022-12-29T15:00:58;-3.70;80.40
67196;DHT22;54122;53.538;49.366;2022-12-29T15:04:04;-3.80;80.30
67196;DHT22;54122;53.538;49.366;2022-12-29T15:06:31;-3.70;80.40
67196;DHT22;54122;53.538;49.366;2022-12-29T15:09:10;-3.70;80.40
67196;DHT22;54122;53.538;49.366;2022-12-29T15:14:35;-3.70;80.40
67196;DHT22;54122;53.538;49.366;2022-12-29T15:17:31;-3.60;80.40
67196;DHT22;54122;53.538;49.366;2022-12-29T15:20:02;-3.70;80.20
67196;DHT22;54122;53.538;49.366;2022-12-29T15:23:10;-3.60;80.40
67196;DHT22;54122;53.538;49.366;2022-12-29T15:25:37;-3.60;80.40
67196;DHT22;54122;53.538;49.366;2022-12-29T15:28:12;-3.60;80.40
67196;DHT22;54122;53.538;49.366;2022-12-29T15:30:51;-3.60;80.30
67196;DHT22;54122;53.538;49.366;2022-12-29T15:33:19;-3.60;80.40
67196;DHT22;54122;53.538;49.366;2022-12-29T15:35:50;-3.60;80.40
67196;DHT22;54122;53.538;49.366;2022-12-29T15:38:26;-3.60;80.40
67196;DHT22;54122;53.538;49.366;2022-12-29T15:41:02;-3.50;81.40
67196;DHT22;54122;53.538;49.366;2022-12-29T15:44:07;-3.60;80.30
67196;DHT22;54122;53.538;49.366;2022-12-29T15:46:35;-3.50;80.20
67196;DHT22;54122;53.538;49.366;2022-12-29T15:49:06;-3.60;81.30
67196;DHT22;54122;53.538;49.366;2022-12-29T15:51:39;-3.60;80.30
67196;DHT22;54122;53.538;49.366;2022-12-29T15:54:17;-3.50;80.40
67196;DHT22;54122;53.538;49.366;2022-12-29T15:56:44;-3.50;80.40
67196;DHT22;54122;53.538;49.366;2022-12-29T15:59:31;-3.60;80.30
67196;DHT22;54122;53.538;49.366;2022-12-29T16:02:01;-3.50;80.40
67196;DHT22;54122;53.538;49.366;2022-12-29T16:04:32;-3.50;80.40
67196;DHT22;54122;53.538;49.366;2022-12-29T16:07:04;-3.60;80.30
67196;DHT22;54122;53.538;49.366;2022-12-29T16:09:41;-3.60;80.10
67196;DHT22;54122;53.538;49.366;2022-12-29T16:12:20;-3.70;80.00
67196;DHT22;54122;53.538;49.366;2022-12-29T16:14:57;-3.70;80.20
67196;DHT22;54122;53.538;49.366;2022-12-29T16:17:31;-3.70;80.40
67196;DHT22;54122;53.538;49.366;2022-12-29T16:19:59;-3.80;80.50
67196;DHT22;54122;53.538;49.366;2022-12-29T16:22:36;-3.80;80.60
67196;DHT22;54122;53.538;49.366;2022-12-29T16:25:19;-3.80;80.70
67196;DHT22;54122;53.538;49.366;2022-12-29T16:27:48;-3.80;80.80
67196;DHT22;54122;53.538;49.366;2022-12-29T16:30:29;-3.80;80.80
67196;DHT22;54122;53.538;49.366;2022-12-29T16:32:58;-3.80;80.90
67196;DHT22;54122;53.538;49.366;2022-12-29T16:35:29;-3.90;80.90
67196;DHT22;54122;53.538;49.366;2022-12-29T16:38:16;-3.80;81.10
67196;DHT22;54122;53.538;49.366;2022-12-29T16:43:28;-3.80;81.10
67196;DHT22;54122;53.538;49.366;2022-12-29T16:48:28;-3.80;81.10
67196;DHT22;54122;53.538;49.366;2022-12-29T16:51:16;-3.80;81.10
67196;DHT22;54122;53.538;49.366;2022-12-29T16:53:49;-3.90;81.10
67196;DHT22;54122;53.538;49.366;2022-12-29T16:56:21;-3.90;81.10
67196;DHT22;54122;53.538;49.366;2022-12-29T16:59:04;-3.90;81.30
67196;DHT22;54122;53.538;49.366;2022-12-29T17:01:38;-3.90;81.30
67196;DHT22;54122;53.538;49.366;2022-12-29T17:04:08;-3.90;81.20
67196;DHT22;54122;53.538;49.366;2022-12-29T17:06:35;-3.90;81.30
67196;DHT22;54122;53.538;49.366;2022-12-29T17:09:01;-3.90;81.40
67196;DHT22;54122;53.538;49.366;2022-12-29T17:11:34;-3.90;81.40
67196;DHT22;54122;53.538;49.366;2022-12-29T17:14:41;-3.90;81.40
67196;DHT22;54122;53.538;49.366;2022-12-29T17:17:32;-3.90;81.50
67196;DHT22;54122;53.538;49.366;2022-12-29T17:20:16;-3.90;81.50
67196;DHT22;54122;53.538;49.366;2022-12-29T17:22:43;-3.90;81.60
67196;DHT22;54122;53.538;49.366;2022-12-29T17:25:15;-4.00;81.60
67196;DHT22;54122;53.538;49.366;2022-12-29T17:30:22;-4.10;81.80
67196;DHT22;54122;53.538;49.366;2022-12-29T17:33:00;-4.10;82.00
67196;DHT22;54122;53.538;49.366;2022-12-29T17:35:30;-4.10;82.20
67196;DHT22;54122;53.538;49.366;2022-12-29T17:37:56;-4.10;82.30
67196;DHT22;54122;53.538;49.366;2022-12-29T17:40:28;-4.20;82.20
67196;DHT22;54122;53.538;49.366;2022-12-29T17:42:57;-4.20;82.30
67196;DHT22;54122;53.538;49.366;2022-12-29T17:45:34;-4.20;82.40
67196;DHT22;54122;53.538;49.366;2022-12-29T17:48:12;-4.20;82.50
67196;DHT22;54122;53.538;49.366;2022-12-29T17:50:39;-4.20;82.70
67196;DHT22;54122;53.538;49.366;2022-12-29T17:53:10;-4.20;82.60
67196;DHT22;54122;53.538;49.366;2022-12-29T17:55:37;-4.20;82.70
67196;DHT22;54122;53.538;49.366;2022-12-29T17:58:27;-4.20;82.70
67196;DHT22;54122;53.538;49.366;2022-12-29T18:01:00;-4.30;82.70
67196;DHT22;54122;53.538;49.366;2022-12-29T18:05:56;-4.40;82.80
67196;DHT22;54122;53.538;49.366;2022-12-29T18:08:22;-4.50;82.90
67196;DHT22;54122;53.538;49.366;2022-12-29T18:10:51;-4.60;82.90
67196;DHT22;54122;53.538;49.366;2022-12-29T18:13:27;-4.70;83.20
67196;DHT22;54122;53.538;49.366;2022-12-29T18:15:56;-4.90;83.20
67196;DHT22;54122;53.538;49.366;2022-12-29T18:18:24;-5.10;83.30